Time;durP1;ratioP1;P1;durP2;ratioP2;P2;SDS_P1;SDS_P2;PMS_P1;PMS_P2;Temp;Humidity;BMP_temperature;BMP_pressure;BME280_temperature;BME280_humidity;BME280_pressure;Samples;Min_cycle;Max_cycle;Signal;HPM_P1;HPM_P2
2020/12/01 00:02:34;;;;;;;18.45;8.35;;;;;;;4.46;82.56;100827.34;1637987;87;21291;-78
2020/12/01 00:05:39;;;;;;;13.55;7.62;;;;;;;4.44;82.68;100832.90;1639126;87;21261;-79
2020/12/01 00:08:46;;;;;;;16.17;8.35;;;;;;;4.43;82.75;100829.83;1639166;87;21835;-79
2020/12/01 00:11:51;;;;;;;13.88;8.45;;;;;;;4.43;82.79;100835.75;1638414;87;22165;-79
2020/12/01 00:14:56;;;;;;;16.57;9.13;;;;;;;4.44;82.87;100822.56;1639071;87;21322;-79
2020/12/01 00:18:01;;;;;;;17.12;8.55;;;;;;;4.43;82.71;100828.97;1638963;87;21870;-79
2020/12/01 00:21:07;;;;;;;16.10;8.50;;;;;;;4.42;82.67;100834.86;1638678;87;21216;-78
2020/12/01 00:24:13;;;;;;;15.93;9.00;;;;;;;4.44;82.64;100832.05;1638816;87;21795;-79
2020/12/01 00:27:18;;;;;;;15.90;9.25;;;;;;;4.40;82.67;100828.72;1637907;87;21800;-79
2020/12/01 00:30:26;;;;;;;14.73;8.55;;;;;;;4.40;82.79;100828.72;1637511;87;21371;-79
2020/12/01 00:33:32;;;;;;;17.00;7.95;;;;;;;4.40;82.82;100831.42;1637588;87;21358;-79
2020/12/01 00:36:40;;;;;;;16.82;9.73;;;;;;;4.33;82.96;100831.07;1638658;87;21236;-79
2020/12/01 00:39:46;;;;;;;15.10;8.80;;;;;;;4.29;83.24;100834.14;1638735;87;21367;-79
2020/12/01 00:42:50;;;;;;;13.08;7.55;;;;;;;4.30;83.41;100842.14;1641797;86;21347;-79
2020/12/01 00:45:56;;;;;;;24.50;12.75;;;;;;;4.30;83.54;100828.59;1651669;87;21327;-79
2020/12/01 00:49:02;;;;;;;11.35;8.10;;;;;;;4.31;83.66;100830.81;1651790;87;21221;-79
2020/12/01 00:52:08;;;;;;;15.30;7.87;;;;;;;4.32;83.72;100825.75;1651451;87;21252;-78
2020/12/01 00:55:13;;;;;;;12.47;7.85;;;;;;;4.31;83.85;100824.89;1651603;87;21221;-79
2020/12/01 00:58:20;;;;;;;12.98;6.78;;;;;;;4.28;84.14;100830.58;1650672;87;21379;-79
2020/12/01 01:01:36;;;;;;;16.80;7.95;;;;;;;4.28;84.36;100836.00;1650547;87;21386;-79
2020/12/01 01:04:42;;;;;;;12.65;6.60;;;;;;;4.19;84.73;100835.38;1651789;87;21336;-79
2020/12/01 01:07:41;;;;;;;11.55;6.62;;;;;;;4.19;85.03;100834.02;1651679;87;21763;-79
2020/12/01 01:10:48;;;;;;;11.28;6.92;;;;;;;4.21;85.07;100829.83;1651742;87;21339;-79
2020/12/01 01:13:53;;;;;;;18.42;7.90;;;;;;;4.17;85.12;100847.30;1650351;87;21229;-79
2020/12/01 01:17:00;;;;;;;21.42;7.00;;;;;;;4.18;85.40;100839.54;1651748;87;21265;-79
2020/12/01 01:20:06;;;;;;;13.03;6.20;;;;;;;4.20;85.57;100835.74;1651958;87;21351;-79
2020/12/01 01:23:12;;;;;;;7.45;5.05;;;;;;;4.21;85.46;100837.95;1650997;87;21229;-79
2020/12/01 01:26:17;;;;;;;14.55;5.50;;;;;;;4.15;85.54;100829.83;1651812;87;21268;-79
2020/12/01 01:29:24;;;;;;;5.80;4.42;;;;;;;4.12;85.59;100830.06;1651711;87;21847;-79
2020/12/01 01:32:30;;;;;;;6.45;5.67;;;;;;;4.09;85.60;100833.90;1651562;87;21374;-79
2020/12/01 01:35:37;;;;;;;16.77;12.75;;;;;;;3.98;85.79;100827.09;1650443;87;21383;-79
2020/12/01 01:38:36;;;;;;;24.02;21.62;;;;;;;3.86;86.31;100842.97;1651691;87;21229;-79
2020/12/01 01:41:43;;;;;;;16.02;14.33;;;;;;;3.76;86.77;100846.86;1651646;87;21265;-79
2020/12/01 01:44:49;;;;;;;14.93;9.90;;;;;;;3.64;87.12;100845.12;1633918;85;21851;-79
2020/12/01 01:47:55;;;;;;;6.53;4.80;;;;;;;3.54;87.68;100849.03;1660255;86;21197;-79
2020/12/01 01:51:08;;;;;;;5.90;5.12;;;;;;;3.50;88.23;100848.03;1631771;88;21378;-79
2020/12/01 01:54:13;;;;;;;8.23;7.30;;;;;;;3.47;88.54;100852.31;1658987;86;21792;-79
2020/12/01 01:57:19;;;;;;;5.28;3.95;;;;;;;3.36;88.42;100856.34;1631525;88;21316;-79
2020/12/01 02:00:56;;;;;;;9.05;6.55;;;;;;;3.20;88.59;100860.21;1659931;86;21216;-79
2020/12/01 02:03:58;;;;;;;11.05;7.10;;;;;;;3.09;88.87;100876.36;1631171;88;21233;-79
2020/12/01 02:07:07;;;;;;;9.38;7.28;;;;;;;3.06;89.19;100865.80;1660316;86;21848;-79
2020/12/01 02:10:12;;;;;;;25.40;22.98;;;;;;;2.99;89.44;100865.86;1631898;88;21831;-79
2020/12/01 02:13:18;;;;;;;7.15;5.47;;;;;;;2.92;89.63;100870.02;1659723;86;21345;-79
2020/12/01 02:16:23;;;;;;;6.78;4.30;;;;;;;2.85;89.86;100863.32;1631744;88;21339;-79
2020/12/01 02:19:36;;;;;;;6.55;4.80;;;;;;;2.83;90.13;100856.69;1658821;86;21324;-79
2020/12/01 02:22:42;;;;;;;6.10;4.33;;;;;;;2.84;90.26;100861.61;1631877;88;21268;-79
2020/12/01 02:25:47;;;;;;;11.12;7.83;;;;;;;2.84;90.40;100861.61;1658855;86;21308;-78
2020/12/01 02:28:52;;;;;;;6.95;4.87;;;;;;;2.84;90.47;100867.00;1631271;88;21723;-79
2020/12/01 02:31:59;;;;;;;7.97;5.28;;;;;;;2.84;90.46;100867.86;1658828;86;21327;-79
2020/12/01 02:35:09;;;;;;;12.88;10.95;;;;;;;2.85;90.36;100869.59;1630538;88;21363;-79
2020/12/01 02:38:14;;;;;;;14.80;10.32;;;;;;;2.81;90.19;100868.94;1658947;86;21379;-79
2020/12/01 02:41:20;;;;;;;26.93;24.05;;;;;;;2.78;90.12;100866.48;1631809;88;21335;-79
2020/12/01 02:44:26;;;;;;;15.70;10.65;;;;;;;2.77;90.04;100866.58;1659258;84;21340;-78
2020/12/01 02:47:33;;;;;;;7.37;5.55;;;;;;;2.76;90.10;100877.02;1633484;88;21256;-79
2020/12/01 02:50:39;;;;;;;8.20;6.40;;;;;;;2.81;90.18;100866.73;1685509;85;21316;-78
2020/12/01 02:53:46;;;;;;;23.87;21.30;;;;;;;2.79;90.03;100875.45;1685263;85;21365;-78
2020/12/01 02:56:53;;;;;;;11.70;9.05;;;;;;;2.75;89.95;100878.86;1685539;85;21836;-78
2020/12/01 02:59:58;;;;;;;10.82;7.03;;;;;;;2.73;89.97;100875.42;1684711;85;21423;-78
2020/12/01 03:03:05;;;;;;;9.33;5.67;;;;;;;2.69;89.82;100872.56;1685669;85;21312;-79
2020/12/01 03:06:19;;;;;;;14.05;11.48;;;;;;;2.62;89.80;100875.32;1685606;85;21270;-79
2020/12/01 03:09:25;;;;;;;16.07;13.83;;;;;;;2.58;89.95;100876.52;1685594;85;21318;-79
2020/12/01 03:12:31;;;;;;;10.00;7.85;;;;;;;2.56;89.75;100879.83;1685629;85;21206;-79
2020/12/01 03:15:36;;;;;;;48.80;43.87;;;;;;;2.51;89.47;100896.85;1684119;85;21222;-79
2020/12/01 03:18:42;;;;;;;13.50;6.95;;;;;;;2.43;89.37;100896.04;1685494;85;21344;-78
2020/12/01 03:21:48;;;;;;;9.23;7.00;;;;;;;2.42;89.56;100896.16;1685584;85;21325;-79
2020/12/01 03:24:52;;;;;;;9.23;6.53;;;;;;;2.38;89.61;100902.26;1684711;85;21741;-79
2020/12/01 03:27:58;;;;;;;8.13;5.70;;;;;;;2.35;89.58;100898.91;1685589;85;21187;-79
2020/12/01 03:31:03;;;;;;;8.95;7.10;;;;;;;2.33;89.61;100903.56;1685006;85;21634;-79
2020/12/01 03:34:09;;;;;;;10.18;6.75;;;;;;;2.33;89.75;100906.27;1684787;85;21238;-79
2020/12/01 03:37:14;;;;;;;7.83;5.42;;;;;;;2.33;89.70;100903.08;1684929;85;22061;-79
2020/12/01 03:40:19;;;;;;;9.60;6.47;;;;;;;2.28;89.65;100909.29;1685277;85;21282;-79
2020/12/01 03:43:25;;;;;;;8.98;5.87;;;;;;;2.26;89.67;100910.76;1685079;85;21328;-79
2020/12/01 03:46:31;;;;;;;7.62;5.90;;;;;;;2.26;89.70;100911.25;1678148;84;21350;-79
2020/12/01 03:49:37;;;;;;;8.85;6.30;;;;;;;2.21;89.62;100918.32;1669852;86;21238;-79
2020/12/01 03:52:42;;;;;;;10.03;7.42;;;;;;;2.16;89.69;100915.54;1669857;86;21322;-79
2020/12/01 03:55:50;;;;;;;8.50;5.80;;;;;;;2.19;89.78;100929.69;1669527;86;21291;-79
2020/12/01 03:58:54;;;;;;;8.03;6.17;;;;;;;2.21;89.65;100933.62;1670463;86;21318;-78
2020/12/01 04:01:54;;;;;;;8.55;4.90;;;;;;;2.24;89.53;100928.02;1670490;86;21322;-78
2020/12/01 04:05:00;;;;;;;7.47;5.42;;;;;;;2.28;89.38;100919.59;1670071;86;21874;-78
2020/12/01 04:08:05;;;;;;;7.95;5.53;;;;;;;2.27;89.12;100927.81;1670351;86;21214;-78
2020/12/01 04:11:11;;;;;;;10.65;5.70;;;;;;;2.22;88.95;100916.48;1669827;86;21345;-79
2020/12/01 04:14:16;;;;;;;9.75;6.08;;;;;;;2.17;88.90;100915.45;1670337;86;21758;-79
2020/12/01 04:17:22;;;;;;;6.55;4.65;;;;;;;2.18;89.01;100923.92;1670480;86;21381;-78
2020/12/01 04:20:29;;;;;;;7.92;5.30;;;;;;;2.16;88.83;100919.59;1670535;86;21838;-79
2020/12/01 04:23:35;;;;;;;9.03;5.83;;;;;;;2.15;88.41;100920.56;1670434;86;21862;-79
2020/12/01 04:26:40;;;;;;;9.10;6.80;;;;;;;2.10;87.72;100924.08;1668991;86;21352;-78
2020/12/01 04:29:45;;;;;;;10.20;7.72;;;;;;;2.14;87.54;100921.05;1670461;86;21304;-79
2020/12/01 04:32:52;;;;;;;6.37;4.97;;;;;;;2.18;87.31;100922.58;1670454;86;21856;-79
2020/12/01 04:35:57;;;;;;;8.10;5.97;;;;;;;2.17;87.10;100915.45;1669532;86;21365;-78
2020/12/01 04:39:02;;;;;;;8.80;4.70;;;;;;;2.18;87.10;100907.73;1669347;86;21358;-78
2020/12/01 04:42:08;;;;;;;6.72;4.08;;;;;;;2.14;87.04;100918.36;1669125;86;21351;-79
2020/12/01 04:45:16;;;;;;;10.82;5.70;;;;;;;2.15;87.26;100910.63;1666488;86;21320;-78
2020/12/01 04:48:45;;;;;;;7.67;4.95;;;;;;;2.16;87.50;100912.84;1676915;85;21383;-79
2020/12/01 04:52:01;;;;;;;10.43;6.12;;;;;;;2.19;87.59;100912.15;1681961;85;21536;-78
2020/12/01 04:55:43;;;;;;;10.98;6.87;;;;;;;2.27;87.53;100911.13;1678235;84;21314;-78
2020/12/01 04:59:08;;;;;;;9.78;6.60;;;;;;;2.30;87.34;100905.98;1680769;85;21764;-79
2020/12/01 05:02:41;;;;;;;11.50;7.55;;;;;;;2.24;86.96;100908.64;1681708;85;21191;-78
2020/12/01 05:06:36;;;;;;;13.30;8.10;;;;;;;2.18;86.74;100910.92;1680130;85;21300;-79
2020/12/01 05:09:46;;;;;;;13.00;8.88;;;;;;;2.11;86.76;100917.21;1680823;85;21357;-79
2020/12/01 05:12:53;;;;;;;12.35;8.88;;;;;;;2.01;87.10;100922.88;1681561;85;21299;-79
2020/12/01 05:16:04;;;;;;;12.03;7.45;;;;;;;1.94;87.38;100924.29;1668396;84;21340;-79
2020/12/01 05:19:10;;;;;;;13.55;8.05;;;;;;;1.89;87.32;100931.34;1655020;86;21772;-79
2020/12/01 05:22:16;;;;;;;11.43;6.78;;;;;;;1.86;87.47;100928.85;1654974;86;21368;-78
2020/12/01 05:25:31;;;;;;;7.47;5.70;;;;;;;1.86;87.86;100932.90;1660400;85;21836;-78
2020/12/01 05:28:37;;;;;;;10.40;7.00;;;;;;;1.86;88.38;100930.69;1682563;83;21261;-78
2020/12/01 05:31:48;;;;;;;15.03;8.88;;;;;;;1.83;88.78;100932.23;1680353;83;21261;-79
2020/12/01 05:34:54;;;;;;;15.20;8.88;;;;;;;1.77;89.27;100933.04;1676334;83;21344;-78
2020/12/01 05:38:13;;;;;;;13.60;7.67;;;;;;;1.75;89.70;100926.04;1679373;83;21741;-77
2020/12/01 05:41:36;;;;;;;14.07;8.25;;;;;;;1.71;89.98;100933.47;1647112;85;21319;-78
2020/12/01 05:44:44;;;;;;;11.03;6.58;;;;;;;1.73;90.24;100931.52;1631841;86;21319;-76
2020/12/01 05:47:58;;;;;;;12.18;7.87;;;;;;;1.72;90.37;100930.28;1630342;86;21245;-79
2020/12/01 05:51:10;;;;;;;15.28;8.30;;;;;;;1.75;90.58;100931.44;1630080;86;21197;-79
2020/12/01 05:54:24;;;;;;;14.05;8.55;;;;;;;1.70;90.69;100937.63;1633335;86;21330;-79
2020/12/01 05:57:34;;;;;;;12.28;8.65;;;;;;;1.67;90.96;100928.39;1628652;86;21304;-79
2020/12/01 06:00:41;;;;;;;11.48;7.58;;;;;;;1.70;91.20;100929.53;1629408;87;21206;-79
2020/12/01 06:04:10;;;;;;;14.15;7.62;;;;;;;1.74;91.31;100932.37;1636140;86;21664;-79
2020/12/01 06:07:26;;;;;;;17.70;8.55;;;;;;;1.83;91.36;100937.63;1636722;86;21895;-79
2020/12/01 06:10:44;;;;;;;18.70;9.25;;;;;;;1.83;91.24;100933.59;1633531;86;21327;-80
2020/12/01 06:13:55;;;;;;;12.28;8.08;;;;;;;1.86;91.34;100938.30;1633130;86;21327;-79
2020/12/01 06:17:23;;;;;;;10.43;7.42;;;;;;;1.90;91.19;100938.95;1634700;86;21602;-78
2020/12/01 06:20:45;;;;;;;12.47;7.50;;;;;;;1.90;91.01;100937.61;1637503;86;21380;-79
2020/12/01 06:24:19;;;;;;;14.93;7.42;;;;;;;1.88;90.90;100932.78;1634244;86;21237;-78
2020/12/01 06:27:40;;;;;;;12.20;7.60;;;;;;;1.92;90.95;100935.16;1636869;86;21341;-77
2020/12/01 06:31:07;;;;;;;11.45;7.05;;;;;;;1.96;90.86;100925.89;1674260;83;21597;-78
2020/12/01 06:34:57;;;;;;;14.05;8.40;;;;;;;1.97;90.67;100932.15;1673050;83;22486;-78
2020/12/01 06:38:27;;;;;;;11.73;8.30;;;;;;;1.99;90.65;100927.53;1677962;83;21323;-79
2020/12/01 06:41:36;;;;;;;12.95;7.67;;;;;;;2.02;90.56;100927.30;1677193;83;21268;-78
2020/12/01 06:44:41;;;;;;;14.10;7.67;;;;;;;2.04;90.55;100929.42;1635509;83;21570;-79
2020/12/01 06:47:48;;;;;;;13.55;8.85;;;;;;;2.05;90.53;100927.09;1673553;84;21997;-79
2020/12/01 06:51:07;;;;;;;10.58;6.95;;;;;;;2.01;90.51;100923.73;1674905;83;21226;-78
2020/12/01 06:54:15;;;;;;;13.43;8.55;;;;;;;1.95;90.54;100926.01;1678107;83;21222;-77
2020/12/01 06:57:41;;;;;;;13.98;8.55;;;;;;;1.93;90.74;100921.19;1675534;83;21867;-77
2020/12/01 07:00:46;;;;;;;14.00;7.45;;;;;;;1.90;90.67;100916.02;1675711;83;22517;-78
2020/12/01 07:03:53;;;;;;;16.90;10.53;;;;;;;1.94;90.68;100913.50;1675867;83;21411;-78
2020/12/01 07:07:07;;;;;;;21.73;10.20;;;;;;;2.00;90.58;100918.45;1676276;83;21344;-79
2020/12/01 07:10:38;;;;;;;17.98;10.35;;;;;;;1.96;90.28;100926.38;1676195;83;21194;-78
2020/12/01 07:13:48;;;;;;;15.58;10.10;;;;;;;1.90;90.21;100925.47;1678624;83;21326;-78
2020/12/01 07:16:56;;;;;;;29.75;19.90;;;;;;;1.83;90.44;100923.66;1678235;83;21356;-79
2020/12/01 07:20:29;;;;;;;23.50;14.40;;;;;;;1.81;90.61;100932.84;1644275;85;22002;-79
2020/12/01 07:23:45;;;;;;;21.52;14.98;;;;;;;1.73;90.40;100928.81;1644214;85;21436;-78
2020/12/01 07:27:12;;;;;;;28.62;20.27;;;;;;;1.68;90.42;100936.36;1609864;86;21271;-79
2020/12/01 07:30:33;;;;;;;23.80;17.17;;;;;;;1.67;90.34;100929.73;1630327;86;21239;-78
2020/12/01 07:33:43;;;;;;;45.52;28.20;;;;;;;1.68;89.83;100936.36;1642014;85;21336;-77
2020/12/01 07:36:58;;;;;;;32.23;17.00;;;;;;;1.63;89.34;100946.60;1594698;87;21585;-78
2020/12/01 07:40:33;;;;;;;30.05;18.45;;;;;;;1.46;88.81;100945.55;1643687;85;21221;-79
2020/12/01 07:43:40;;;;;;;44.63;28.23;;;;;;;1.35;89.12;100945.37;1630159;87;21300;-79
2020/12/01 07:50:10;;;;;;;44.88;26.70;;;;;;;1.25;89.77;100943.77;1630690;86;21213;-79
2020/12/01 07:53:20;;;;;;;52.00;25.68;;;;;;;1.23;90.16;100946.58;1609970;87;21382;-79
2020/12/01 07:56:31;;;;;;;34.63;23.55;;;;;;;1.26;90.36;100940.97;1677821;84;21308;-79
2020/12/01 07:59:46;;;;;;;35.83;21.82;;;;;;;1.28;90.50;100937.70;1677724;84;21333;-78
2020/12/01 08:02:53;;;;;;;38.65;28.20;;;;;;;1.28;90.49;100943.09;1675736;84;21249;-78
2020/12/01 08:05:59;;;;;;;27.77;18.05;;;;;;;1.24;90.61;100937.52;1661053;85;22349;-78
2020/12/01 08:09:07;;;;;;;28.57;16.80;;;;;;;1.28;90.91;100943.09;1675123;84;21632;-82
2020/12/01 08:12:24;;;;;;;30.12;15.63;;;;;;;1.31;91.02;100937.10;1681092;84;21210;-79
2020/12/01 08:15:30;;;;;;;33.40;18.65;;;;;;;1.30;91.12;100942.98;1647274;86;21880;-85
2020/12/01 08:18:37;;;;;;;60.78;47.78;;;;;;;1.36;91.19;100943.05;1676714;84;21352;-83
2020/12/01 08:21:50;;;;;;;33.20;23.05;;;;;;;1.38;90.94;100942.48;1680358;84;21392;-83
2020/12/01 08:24:58;;;;;;;31.77;21.00;;;;;;;1.34;90.88;100953.95;1675356;84;21881;-78
2020/12/01 08:28:15;;;;;;;25.43;14.75;;;;;;;1.32;90.71;100952.30;1677515;84;21321;-79
2020/12/01 08:31:51;;;;;;;78.87;61.90;;;;;;;1.27;90.32;100942.72;1678857;84;21356;-79
2020/12/01 08:35:24;;;;;;;30.72;16.23;;;;;;;1.25;90.05;100949.16;1676383;84;21407;-79
2020/12/01 08:38:41;;;;;;;52.27;38.08;;;;;;;1.14;90.75;100939.09;1678890;84;22101;-79
2020/12/01 08:42:01;;;;;;;28.35;18.15;;;;;;;1.17;90.59;100936.67;1675842;84;21527;-79
2020/12/01 08:45:21;;;;;;;35.23;23.15;;;;;;;1.18;90.46;100936.59;1673566;84;21359;-79
2020/12/01 08:49:06;;;;;;;31.40;17.57;;;;;;;1.22;90.67;100925.99;1677053;84;21241;-79
2020/12/01 08:52:10;;;;;;;23.27;13.43;;;;;;;1.24;90.78;100920.48;1676515;83;21363;-78
2020/12/01 08:55:40;;;;;;;22.40;12.78;;;;;;;1.29;90.79;100922.39;1675324;83;21273;-78
2020/12/01 08:58:54;;;;;;;25.72;16.10;;;;;;;1.32;90.71;100924.89;1672579;83;21912;-78
2020/12/01 09:01:59;;;;;;;22.13;13.50;;;;;;;1.40;90.66;100919.83;1677973;83;21355;-79
2020/12/01 09:05:08;;;;;;;28.60;15.80;;;;;;;1.45;90.18;100918.17;1645093;85;21323;-78
2020/12/01 09:15:13;;;;;;;29.07;12.90;;;;;;;1.56;89.77;100901.30;1634524;85;21250;-79
2020/12/01 09:21:56;;;;;;;21.62;12.78;;;;;;;1.72;89.36;100892.03;1637574;85;22694;-79
2020/12/01 09:25:17;;;;;;;27.15;13.05;;;;;;;1.74;88.98;100888.77;1632825;85;21355;-79
2020/12/01 09:28:36;;;;;;;21.52;13.72;;;;;;;1.75;88.74;100890.48;1642930;85;21245;-78
2020/12/01 09:31:46;;;;;;;23.00;12.55;;;;;;;1.73;89.02;100880.76;1643153;85;21355;-78
2020/12/01 09:35:17;;;;;;;22.27;11.10;;;;;;;1.73;89.10;100891.06;1631839;86;21353;-78
2020/12/01 09:38:48;;;;;;;21.52;12.68;;;;;;;1.66;88.94;100880.81;1640392;86;21282;-82
2020/12/01 09:42:02;;;;;;;21.40;10.72;;;;;;;1.63;88.65;100876.48;1629839;87;21403;-79
2020/12/01 09:48:26;;;;;;;21.15;10.82;;;;;;;1.64;88.64;100871.95;1639494;86;21336;-79
2020/12/01 09:51:26;;;;;;;20.48;11.25;;;;;;;1.64;88.69;100867.42;1639464;85;21366;-78
2020/12/01 09:54:54;;;;;;;18.52;10.05;;;;;;;1.70;88.79;100865.67;1632358;86;21350;-78
2020/12/01 09:58:23;;;;;;;19.85;10.05;;;;;;;1.75;88.52;100875.66;1631597;86;21534;-78
2020/12/01 10:08:43;;;;;;;25.20;14.28;;;;;;;1.77;88.26;100870.14;1675049;83;21316;-77
2020/12/01 10:18:49;;;;;;;20.27;11.28;;;;;;;1.75;88.72;100866.70;1673102;83;21352;-77
2020/12/01 10:35:28;;;;;;;18.77;9.90;;;;;;;1.75;88.50;100855.91;1627499;87;21308;-77
2020/12/01 10:38:37;;;;;;;23.40;14.28;;;;;;;1.69;88.83;100853.13;1628012;86;21370;-78
2020/12/01 10:41:43;;;;;;;18.00;11.93;;;;;;;1.73;89.01;100847.05;1631710;86;21211;-78
2020/12/01 10:44:52;;;;;;;18.65;9.58;;;;;;;1.77;88.94;100855.30;1631686;86;21423;-78
2020/12/01 10:48:15;;;;;;;18.37;9.58;;;;;;;1.75;88.61;100845.98;1619160;86;21319;-77
2020/12/01 10:51:09;;;;;;;17.12;9.95;;;;;;;1.69;88.38;100842.83;1676048;83;21289;-78
2020/12/01 10:54:19;;;;;;;20.37;9.98;;;;;;;1.63;88.16;100852.70;1677003;83;21205;-79
2020/12/01 10:57:28;;;;;;;14.37;8.83;;;;;;;1.65;88.76;100853.48;1679261;83;21576;-79
2020/12/01 11:00:42;;;;;;;17.12;9.33;;;;;;;1.65;88.76;100853.48;1677403;83;21246;-79
2020/12/01 11:03:49;;;;;;;17.10;10.05;;;;;;;1.68;88.59;100854.11;1675796;83;21353;-79
2020/12/01 11:06:54;;;;;;;21.05;9.75;;;;;;;1.69;88.69;100859.02;1676704;83;21736;-79
2020/12/01 11:10:00;;;;;;;17.10;9.55;;;;;;;1.69;88.67;100854.97;1676495;83;21368;-78
2020/12/01 11:13:09;;;;;;;19.05;9.50;;;;;;;1.69;88.68;100850.44;1673778;83;21341;-79
2020/12/01 11:16:20;;;;;;;15.50;9.50;;;;;;;1.73;88.80;100849.74;1674326;84;21406;-77
2020/12/01 11:19:43;;;;;;;17.82;9.00;;;;;;;1.74;89.02;100846.96;1675026;83;21909;-78
2020/12/01 11:22:56;;;;;;;17.07;9.83;;;;;;;1.69;89.30;100849.57;1670890;83;21270;-78
2020/12/01 11:26:02;;;;;;;17.95;10.40;;;;;;;1.64;89.71;100843.15;1679283;83;22110;-77
2020/12/01 11:29:12;;;;;;;19.23;11.55;;;;;;;1.58;90.05;100837.33;1682390;83;21382;-78
2020/12/01 11:32:22;;;;;;;19.00;11.88;;;;;;;1.52;90.41;100834.58;1643630;85;21354;-78
2020/12/01 11:35:30;;;;;;;33.80;23.70;;;;;;;1.50;90.65;100842.75;1628471;85;21289;-79
2020/12/01 11:38:40;;;;;;;28.73;16.70;;;;;;;1.48;90.62;100837.95;1638856;85;21383;-78
2020/12/01 11:41:54;;;;;;;26.30;16.05;;;;;;;1.42;90.47;100834.84;1632090;86;21411;-78
2020/12/01 11:45:03;;;;;;;29.85;13.88;;;;;;;1.38;90.57;100841.40;1623278;87;21783;-77
2020/12/01 11:48:10;;;;;;;;;;;;;;;1.33;90.87;100834.97;1636771;86;21872;-78
2020/12/01 11:51:21;;;;;;;22.48;13.55;;;;;;;1.26;91.32;100838.55;1631029;86;20249;-79
2020/12/01 11:54:41;;;;;;;24.90;12.90;;;;;;;1.26;91.85;100840.39;1618657;85;21333;-78
2020/12/01 11:58:03;;;;;;;26.05;17.05;;;;;;;1.31;92.24;100846.81;1648921;85;21327;-81
2020/12/01 12:01:12;;;;;;;30.17;16.70;;;;;;;1.33;92.43;100840.85;1645799;85;21371;-81
2020/12/01 12:04:21;;;;;;;29.27;17.87;;;;;;;1.30;92.49;100843.74;1647065;85;21338;-79
2020/12/01 12:07:27;;;;;;;25.77;14.25;;;;;;;1.31;92.63;100841.42;1655594;84;21867;-80
2020/12/01 12:10:36;;;;;;;31.93;14.18;;;;;;;1.32;92.74;100841.80;1681525;83;21355;-80
2020/12/01 12:13:46;;;;;;;44.93;29.18;;;;;;;1.33;92.80;100847.59;1648449;85;21343;-79
2020/12/01 12:16:51;;;;;;;31.00;16.75;;;;;;;1.36;92.81;100844.17;1679512;83;21713;-80
2020/12/01 12:19:59;;;;;;;38.02;18.07;;;;;;;1.35;92.79;100841.59;1649170;85;21819;-80
2020/12/01 12:23:20;;;;;;;32.45;16.05;;;;;;;1.34;92.85;100843.44;1650144;85;21209;-81
2020/12/01 12:26:26;;;;;;;32.38;17.52;;;;;;;1.37;92.83;100850.46;1686233;83;21252;-82
2020/12/01 12:29:32;;;;;;;41.73;24.00;;;;;;;1.44;92.77;100855.80;1681977;83;21383;-79
2020/12/01 12:32:41;;;;;;;31.90;20.10;;;;;;;1.48;92.47;100851.93;1679525;83;21363;-81
2020/12/01 12:35:51;;;;;;;33.80;17.02;;;;;;;1.46;92.12;100861.97;1680243;83;21836;-79
2020/12/01 12:38:59;;;;;;;29.50;17.37;;;;;;;1.43;91.98;100856.77;1683038;83;21646;-80
2020/12/01 12:42:09;;;;;;;42.03;22.93;;;;;;;1.45;92.01;100864.26;1650987;85;21345;-80
2020/12/01 12:45:17;;;;;;;41.88;23.65;;;;;;;1.43;92.03;100860.81;1679632;85;21335;-79
2020/12/01 12:48:23;;;;;;;27.87;15.83;;;;;;;1.41;92.17;100865.43;1681787;83;21355;-80
2020/12/01 12:51:28;;;;;;;34.23;17.55;;;;;;;1.42;92.23;100853.70;1652267;85;21323;-81
2020/12/01 12:54:35;;;;;;;38.80;25.57;;;;;;;1.45;92.28;100855.68;1652168;85;21335;-80
2020/12/01 12:57:42;;;;;;;72.10;60.25;;;;;;;1.49;92.01;100853.16;1650708;85;21198;-80
2020/12/01 13:00:49;;;;;;;41.18;20.77;;;;;;;1.48;91.79;100853.27;1653579;85;21300;-80
2020/12/01 13:03:55;;;;;;;45.75;29.42;;;;;;;1.44;91.47;100870.14;1691632;83;21330;-80
2020/12/01 13:07:01;;;;;;;35.17;20.25;;;;;;;1.38;91.34;100854.88;1685078;83;21277;-80
2020/12/01 13:10:11;;;;;;;43.78;26.17;;;;;;;1.30;91.13;100862.61;1682240;83;21346;-80
2020/12/01 13:13:16;;;;;;;38.67;22.55;;;;;;;1.16;91.23;100866.23;1681128;83;21194;-80
2020/12/01 13:16:26;;;;;;;41.28;20.08;;;;;;;1.09;91.50;100872.52;1653422;85;21427;-80
2020/12/01 13:19:30;;;;;;;42.78;24.18;;;;;;;1.08;91.84;100874.81;1620459;86;21740;-80
2020/12/01 13:22:36;;;;;;;43.90;26.82;;;;;;;1.11;92.12;100880.01;1623439;86;21236;-80
2020/12/01 13:25:42;;;;;;;52.45;34.13;;;;;;;1.11;92.29;100875.97;1681319;83;21325;-79
2020/12/01 13:28:48;;;;;;;45.23;23.65;;;;;;;1.09;92.32;100884.65;1680965;83;21350;-80
2020/12/01 13:32:05;;;;;;;40.78;25.85;;;;;;;1.08;92.45;100886.08;1682988;83;21400;-80
2020/12/01 13:35:17;;;;;;;36.03;19.30;;;;;;;1.09;92.61;100894.56;1655131;85;21351;-80
2020/12/01 13:38:22;;;;;;;33.42;18.67;;;;;;;1.09;92.41;100892.73;1625709;86;21336;-80
2020/12/01 13:41:35;;;;;;;33.60;18.92;;;;;;;1.10;92.29;100893.59;1682201;85;21338;-80
2020/12/01 13:44:40;;;;;;;37.05;19.40;;;;;;;1.09;92.18;100895.43;1649862;85;21376;-80
2020/12/01 13:47:47;;;;;;;37.55;20.05;;;;;;;1.08;92.08;100896.37;1681862;83;21434;-80
2020/12/01 13:50:52;;;;;;;48.45;31.95;;;;;;;1.06;91.95;100892.06;1638979;86;21327;-80
2020/12/01 13:54:06;;;;;;;43.33;27.15;;;;;;;1.03;91.98;100899.85;1649111;85;21293;-79
2020/12/01 13:57:06;;;;;;;36.90;20.77;;;;;;;1.01;91.90;100901.80;1647470;86;21225;-81
2020/12/01 14:00:15;;;;;;;47.90;35.35;;;;;;;1.03;91.67;100910.63;1629998;86;21327;-81
2020/12/01 14:03:21;;;;;;;41.98;26.85;;;;;;;1.05;91.31;100910.55;1631731;86;21337;-80
2020/12/01 14:06:26;;;;;;;48.63;32.78;;;;;;;1.05;90.93;100910.06;1632260;86;21300;-80
2020/12/01 14:09:33;;;;;;;55.75;44.08;;;;;;;1.08;90.79;100909.84;1631507;86;21201;-79
2020/12/01 14:12:41;;;;;;;40.58;23.18;;;;;;;1.10;90.54;100916.50;1628396;86;21383;-79
2020/12/01 14:15:47;;;;;;;37.10;22.27;;;;;;;1.05;90.09;100916.80;1607992;87;21325;-79
2020/12/01 14:18:53;;;;;;;42.40;25.27;;;;;;;1.02;89.92;100919.69;1672267;84;21332;-79
2020/12/01 14:21:59;;;;;;;60.92;47.55;;;;;;;0.98;89.88;100932.97;1632651;86;21366;-79
2020/12/01 14:25:05;;;;;;;39.73;23.75;;;;;;;0.92;89.84;100928.84;1606791;87;21412;-79
2020/12/01 14:28:10;;;;;;;40.38;22.93;;;;;;;0.87;89.98;100934.16;1633419;86;21339;-79
2020/12/01 14:31:19;;;;;;;41.75;25.62;;;;;;;0.74;90.05;100926.85;1602457;87;22930;-79
2020/12/01 14:34:25;;;;;;;43.52;25.25;;;;;;;0.63;90.25;100937.94;1631927;86;21344;-78
2020/12/01 14:37:33;;;;;;;48.08;31.73;;;;;;;0.53;90.76;100936.31;1634088;87;21331;-80
2020/12/01 14:40:39;;;;;;;62.20;39.15;;;;;;;0.46;91.10;100938.99;1632667;87;21399;-80
2020/12/01 14:43:45;;;;;;;54.00;34.13;;;;;;;0.40;91.17;100944.77;1632060;86;21760;-80
2020/12/01 14:47:11;;;;;;;47.08;29.35;;;;;;;0.38;90.92;100945.36;1632881;86;21378;-80
2020/12/01 14:50:47;;;;;;;71.30;55.15;;;;;;;0.37;90.37;100946.30;1609872;87;21319;-79
2020/12/01 14:54:06;;;;;;;42.03;29.12;;;;;;;0.35;89.94;100938.81;1650618;85;21352;-79
2020/12/01 14:57:23;;;;;;;62.05;40.52;;;;;;;0.31;90.01;100948.89;1668840;85;21345;-79
2020/12/01 15:00:45;;;;;;;62.45;44.48;;;;;;;0.31;90.29;100951.59;1594018;90;21352;-79
2020/12/01 15:04:03;;;;;;;35.25;21.12;;;;;;;0.31;90.55;100954.77;1603230;89;21376;-79
2020/12/01 15:07:22;;;;;;;38.35;23.87;;;;;;;0.28;90.41;100957.62;1654646;86;21371;-80
2020/12/01 15:10:38;;;;;;;44.63;27.67;;;;;;;0.26;90.24;100952.35;1620376;88;21978;-79
2020/12/01 15:13:46;;;;;;;36.23;25.40;;;;;;;0.23;90.06;100959.26;1584366;88;21367;-79
2020/12/01 15:17:17;;;;;;;35.43;19.82;;;;;;;0.22;89.94;100949.46;1620809;88;21339;-79
2020/12/01 15:20:26;;;;;;;55.48;40.67;;;;;;;0.22;89.81;100948.98;1606774;88;21340;-80
2020/12/01 15:24:07;;;;;;;37.23;18.80;;;;;;;0.27;89.55;100957.25;1621652;88;21337;-79
2020/12/01 15:27:14;;;;;;;62.75;48.70;;;;;;;0.21;89.17;100946.39;1621154;88;21943;-79
2020/12/01 15:30:22;;;;;;;48.13;34.88;;;;;;;0.21;88.76;100944.56;1601871;88;21228;-79